sensor_id;sensor_type;location;lat;lon;timestamp;P1;durP1;ratioP1;P2;durP2;ratioP2
46322;SDS011;32044;52.386;13.278;2022-12-08T00:01:15;10.38;;;6.05;;
46322;SDS011;32044;52.386;13.278;2022-12-08T00:03:43;17.95;;;6.80;;
46322;SDS011;32044;52.386;13.278;2022-12-08T00:06:14;16.77;;;6.80;;
46322;SDS011;32044;52.386;13.278;2022-12-08T00:08:59;18.77;;;6.50;;
46322;SDS011;32044;52.386;13.278;2022-12-08T00:11:43;17.02;;;7.30;;
46322;SDS011;32044;52.386;13.278;2022-12-08T00:14:08;20.25;;;6.78;;
46322;SDS011;32044;52.386;13.278;2022-12-08T00:16:34;15.88;;;6.70;;
46322;SDS011;32044;52.386;13.278;2022-12-08T00:18:59;19.58;;;7.20;;
46322;SDS011;32044;52.386;13.278;2022-12-08T00:21:24;18.92;;;7.13;;
46322;SDS011;32044;52.386;13.278;2022-12-08T00:23:49;14.23;;;6.40;;
46322;SDS011;32044;52.386;13.278;2022-12-08T00:26:18;15.25;;;7.30;;
46322;SDS011;32044;52.386;13.278;2022-12-08T00:28:44;17.33;;;6.75;;
46322;SDS011;32044;52.386;13.278;2022-12-08T00:31:09;16.73;;;7.25;;
46322;SDS011;32044;52.386;13.278;2022-12-08T00:33:35;18.67;;;7.78;;
46322;SDS011;32044;52.386;13.278;2022-12-08T00:36:07;17.58;;;7.53;;
46322;SDS011;32044;52.386;13.278;2022-12-08T00:38:34;16.13;;;7.22;;
46322;SDS011;32044;52.386;13.278;2022-12-08T00:41:00;18.17;;;7.70;;
46322;SDS011;32044;52.386;13.278;2022-12-08T00:43:25;20.65;;;8.27;;
46322;SDS011;32044;52.386;13.278;2022-12-08T00:45:51;19.50;;;7.93;;
46322;SDS011;32044;52.386;13.278;2022-12-08T00:48:16;20.30;;;8.73;;
46322;SDS011;32044;52.386;13.278;2022-12-08T00:50:41;24.85;;;8.93;;
46322;SDS011;32044;52.386;13.278;2022-12-08T00:53:06;21.83;;;8.93;;
46322;SDS011;32044;52.386;13.278;2022-12-08T00:55:32;19.77;;;9.20;;
46322;SDS011;32044;52.386;13.278;2022-12-08T00:57:57;18.60;;;9.50;;
46322;SDS011;32044;52.386;13.278;2022-12-08T01:00:22;19.92;;;8.75;;
46322;SDS011;32044;52.386;13.278;2022-12-08T01:02:47;15.15;;;8.65;;
46322;SDS011;32044;52.386;13.278;2022-12-08T01:05:13;21.73;;;9.77;;
46322;SDS011;32044;52.386;13.278;2022-12-08T01:07:38;26.52;;;11.05;;
46322;SDS011;32044;52.386;13.278;2022-12-08T01:10:04;22.80;;;10.10;;
46322;SDS011;32044;52.386;13.278;2022-12-08T01:12:29;26.98;;;11.32;;
46322;SDS011;32044;52.386;13.278;2022-12-08T01:14:55;22.17;;;11.63;;
46322;SDS011;32044;52.386;13.278;2022-12-08T01:17:20;24.02;;;11.68;;
46322;SDS011;32044;52.386;13.278;2022-12-08T01:19:45;22.52;;;11.30;;
46322;SDS011;32044;52.386;13.278;2022-12-08T01:22:10;25.05;;;12.38;;
46322;SDS011;32044;52.386;13.278;2022-12-08T01:24:36;26.20;;;12.88;;
46322;SDS011;32044;52.386;13.278;2022-12-08T01:27:01;24.85;;;13.27;;
46322;SDS011;32044;52.386;13.278;2022-12-08T01:29:26;28.45;;;13.00;;
46322;SDS011;32044;52.386;13.278;2022-12-08T01:31:52;23.58;;;11.68;;
46322;SDS011;32044;52.386;13.278;2022-12-08T01:34:17;24.90;;;12.88;;
46322;SDS011;32044;52.386;13.278;2022-12-08T01:36:42;23.08;;;11.73;;
46322;SDS011;32044;52.386;13.278;2022-12-08T01:39:10;25.08;;;12.02;;
46322;SDS011;32044;52.386;13.278;2022-12-08T01:41:38;23.65;;;11.60;;
46322;SDS011;32044;52.386;13.278;2022-12-08T01:46:33;24.27;;;10.65;;
46322;SDS011;32044;52.386;13.278;2022-12-08T01:49:06;27.33;;;11.65;;
46322;SDS011;32044;52.386;13.278;2022-12-08T01:51:44;22.63;;;10.98;;
46322;SDS011;32044;52.386;13.278;2022-12-08T01:54:14;22.77;;;11.00;;
46322;SDS011;32044;52.386;13.278;2022-12-08T01:56:42;23.90;;;12.20;;
46322;SDS011;32044;52.386;13.278;2022-12-08T01:59:11;26.85;;;11.38;;
46322;SDS011;32044;52.386;13.278;2022-12-08T02:01:37;21.90;;;10.63;;
46322;SDS011;32044;52.386;13.278;2022-12-08T02:04:02;21.83;;;11.00;;
46322;SDS011;32044;52.386;13.278;2022-12-08T02:06:29;21.90;;;11.23;;
46322;SDS011;32044;52.386;13.278;2022-12-08T02:08:58;23.17;;;11.55;;
46322;SDS011;32044;52.386;13.278;2022-12-08T02:11:24;25.40;;;12.50;;
46322;SDS011;32044;52.386;13.278;2022-12-08T02:13:50;31.08;;;13.02;;
46322;SDS011;32044;52.386;13.278;2022-12-08T02:19:04;25.05;;;12.50;;
46322;SDS011;32044;52.386;13.278;2022-12-08T02:24:37;25.20;;;11.52;;
46322;SDS011;32044;52.386;13.278;2022-12-08T02:27:36;27.23;;;11.40;;
46322;SDS011;32044;52.386;13.278;2022-12-08T02:30:29;23.33;;;10.80;;
46322;SDS011;32044;52.386;13.278;2022-12-08T02:36:04;25.52;;;10.50;;
46322;SDS011;32044;52.386;13.278;2022-12-08T02:43:56;23.33;;;10.23;;
46322;SDS011;32044;52.386;13.278;2022-12-08T02:46:44;25.02;;;10.38;;
46322;SDS011;32044;52.386;13.278;2022-12-08T02:49:13;25.40;;;10.70;;
46322;SDS011;32044;52.386;13.278;2022-12-08T02:51:40;17.92;;;9.43;;
46322;SDS011;32044;52.386;13.278;2022-12-08T02:54:05;22.98;;;10.07;;
46322;SDS011;32044;52.386;13.278;2022-12-08T02:56:51;20.27;;;10.25;;
46322;SDS011;32044;52.386;13.278;2022-12-08T02:59:55;24.17;;;10.85;;
46322;SDS011;32044;52.386;13.278;2022-12-08T03:13:57;21.20;;;10.88;;
46322;SDS011;32044;52.386;13.278;2022-12-08T03:16:24;24.75;;;11.27;;
46322;SDS011;32044;52.386;13.278;2022-12-08T03:18:53;23.52;;;11.35;;
46322;SDS011;32044;52.386;13.278;2022-12-08T03:23:50;30.97;;;12.90;;
46322;SDS011;32044;52.386;13.278;2022-12-08T03:26:24;34.83;;;14.63;;
46322;SDS011;32044;52.386;13.278;2022-12-08T03:28:55;32.65;;;15.02;;
46322;SDS011;32044;52.386;13.278;2022-12-08T03:31:20;30.80;;;15.30;;
46322;SDS011;32044;52.386;13.278;2022-12-08T03:33:48;40.50;;;17.75;;
46322;SDS011;32044;52.386;13.278;2022-12-08T03:36:14;39.50;;;17.52;;
46322;SDS011;32044;52.386;13.278;2022-12-08T03:38:44;34.92;;;17.25;;
46322;SDS011;32044;52.386;13.278;2022-12-08T03:41:09;41.33;;;19.52;;
46322;SDS011;32044;52.386;13.278;2022-12-08T03:43:54;46.15;;;19.02;;
46322;SDS011;32044;52.386;13.278;2022-12-08T03:46:21;44.33;;;19.50;;
46322;SDS011;32044;52.386;13.278;2022-12-08T03:48:48;50.65;;;21.90;;
46322;SDS011;32044;52.386;13.278;2022-12-08T03:51:13;42.00;;;19.58;;
46322;SDS011;32044;52.386;13.278;2022-12-08T03:53:38;43.08;;;21.02;;
46322;SDS011;32044;52.386;13.278;2022-12-08T03:56:05;45.83;;;21.92;;
46322;SDS011;32044;52.386;13.278;2022-12-08T03:58:39;52.35;;;21.90;;
46322;SDS011;32044;52.386;13.278;2022-12-08T04:01:04;42.92;;;21.13;;
46322;SDS011;32044;52.386;13.278;2022-12-08T04:03:29;52.30;;;22.02;;
46322;SDS011;32044;52.386;13.278;2022-12-08T04:05:54;47.47;;;22.17;;
46322;SDS011;32044;52.386;13.278;2022-12-08T04:08:20;47.28;;;21.45;;
46322;SDS011;32044;52.386;13.278;2022-12-08T04:10:45;46.53;;;22.45;;
46322;SDS011;32044;52.386;13.278;2022-12-08T04:13:10;47.47;;;23.05;;
46322;SDS011;32044;52.386;13.278;2022-12-08T04:15:36;48.83;;;22.65;;
46322;SDS011;32044;52.386;13.278;2022-12-08T04:18:01;48.40;;;23.25;;
46322;SDS011;32044;52.386;13.278;2022-12-08T04:20:26;47.38;;;23.08;;
46322;SDS011;32044;52.386;13.278;2022-12-08T04:22:51;47.78;;;22.67;;
46322;SDS011;32044;52.386;13.278;2022-12-08T04:25:17;41.75;;;21.77;;
46322;SDS011;32044;52.386;13.278;2022-12-08T04:27:42;44.55;;;22.77;;
46322;SDS011;32044;52.386;13.278;2022-12-08T04:30:07;44.22;;;21.45;;
46322;SDS011;32044;52.386;13.278;2022-12-08T04:32:34;45.95;;;22.73;;
46322;SDS011;32044;52.386;13.278;2022-12-08T04:34:59;45.05;;;22.58;;
46322;SDS011;32044;52.386;13.278;2022-12-08T04:37:24;43.58;;;23.60;;
46322;SDS011;32044;52.386;13.278;2022-12-08T04:39:50;51.42;;;22.95;;
46322;SDS011;32044;52.386;13.278;2022-12-08T04:42:15;41.90;;;22.08;;
46322;SDS011;32044;52.386;13.278;2022-12-08T04:44:40;44.33;;;23.40;;
46322;SDS011;32044;52.386;13.278;2022-12-08T04:47:05;45.53;;;22.30;;
46322;SDS011;32044;52.386;13.278;2022-12-08T04:49:31;44.08;;;22.52;;
46322;SDS011;32044;52.386;13.278;2022-12-08T04:51:56;36.17;;;20.63;;
46322;SDS011;32044;52.386;13.278;2022-12-08T04:54:21;43.08;;;21.67;;
46322;SDS011;32044;52.386;13.278;2022-12-08T04:56:46;43.55;;;21.70;;
46322;SDS011;32044;52.386;13.278;2022-12-08T04:59:12;47.10;;;22.17;;
46322;SDS011;32044;52.386;13.278;2022-12-08T05:01:37;46.63;;;22.77;;
46322;SDS011;32044;52.386;13.278;2022-12-08T05:04:02;41.58;;;21.88;;
46322;SDS011;32044;52.386;13.278;2022-12-08T05:06:27;44.70;;;22.52;;
46322;SDS011;32044;52.386;13.278;2022-12-08T05:08:53;43.97;;;21.85;;
46322;SDS011;32044;52.386;13.278;2022-12-08T05:11:18;43.00;;;21.52;;
46322;SDS011;32044;52.386;13.278;2022-12-08T05:13:43;39.75;;;21.45;;
46322;SDS011;32044;52.386;13.278;2022-12-08T05:16:12;49.33;;;22.92;;
46322;SDS011;32044;52.386;13.278;2022-12-08T05:18:39;43.08;;;22.27;;
46322;SDS011;32044;52.386;13.278;2022-12-08T05:21:05;41.63;;;21.52;;
46322;SDS011;32044;52.386;13.278;2022-12-08T05:23:31;41.13;;;21.65;;
46322;SDS011;32044;52.386;13.278;2022-12-08T05:25:57;46.33;;;21.40;;
46322;SDS011;32044;52.386;13.278;2022-12-08T05:28:22;45.80;;;22.02;;
46322;SDS011;32044;52.386;13.278;2022-12-08T05:30:48;40.33;;;21.23;;
46322;SDS011;32044;52.386;13.278;2022-12-08T05:33:13;44.47;;;22.60;;
46322;SDS011;32044;52.386;13.278;2022-12-08T05:35:38;48.10;;;19.98;;
46322;SDS011;32044;52.386;13.278;2022-12-08T05:38:04;50.58;;;22.08;;
46322;SDS011;32044;52.386;13.278;2022-12-08T05:40:29;42.60;;;22.30;;
46322;SDS011;32044;52.386;13.278;2022-12-08T05:42:55;47.67;;;21.23;;
46322;SDS011;32044;52.386;13.278;2022-12-08T05:45:20;40.33;;;21.38;;
46322;SDS011;32044;52.386;13.278;2022-12-08T05:47:45;44.92;;;20.98;;
46322;SDS011;32044;52.386;13.278;2022-12-08T05:50:11;43.20;;;21.23;;
46322;SDS011;32044;52.386;13.278;2022-12-08T05:52:36;49.55;;;21.45;;
46322;SDS011;32044;52.386;13.278;2022-12-08T05:55:01;42.45;;;21.00;;
46322;SDS011;32044;52.386;13.278;2022-12-08T05:57:27;46.47;;;20.63;;
46322;SDS011;32044;52.386;13.278;2022-12-08T05:59:52;37.97;;;19.80;;
46322;SDS011;32044;52.386;13.278;2022-12-08T06:02:18;47.85;;;21.13;;
46322;SDS011;32044;52.386;13.278;2022-12-08T06:04:43;41.72;;;20.55;;
46322;SDS011;32044;52.386;13.278;2022-12-08T06:07:08;38.50;;;20.48;;
46322;SDS011;32044;52.386;13.278;2022-12-08T06:09:33;39.50;;;21.10;;
46322;SDS011;32044;52.386;13.278;2022-12-08T06:11:59;42.63;;;21.30;;
46322;SDS011;32044;52.386;13.278;2022-12-08T06:14:25;39.33;;;20.50;;
46322;SDS011;32044;52.386;13.278;2022-12-08T06:16:50;45.95;;;21.38;;
46322;SDS011;32044;52.386;13.278;2022-12-08T06:19:15;42.25;;;20.90;;
46322;SDS011;32044;52.386;13.278;2022-12-08T06:21:41;44.47;;;19.88;;
46322;SDS011;32044;52.386;13.278;2022-12-08T06:24:06;45.92;;;20.63;;
46322;SDS011;32044;52.386;13.278;2022-12-08T06:26:31;46.58;;;21.30;;
46322;SDS011;32044;52.386;13.278;2022-12-08T06:28:57;47.85;;;20.38;;
46322;SDS011;32044;52.386;13.278;2022-12-08T06:31:24;44.10;;;22.15;;
46322;SDS011;32044;52.386;13.278;2022-12-08T06:33:50;39.42;;;19.77;;
46322;SDS011;32044;52.386;13.278;2022-12-08T06:36:17;47.50;;;21.63;;
46322;SDS011;32044;52.386;13.278;2022-12-08T06:38:43;40.03;;;20.70;;
46322;SDS011;32044;52.386;13.278;2022-12-08T06:41:09;48.15;;;20.13;;
46322;SDS011;32044;52.386;13.278;2022-12-08T06:43:34;48.05;;;21.98;;
46322;SDS011;32044;52.386;13.278;2022-12-08T06:46:00;44.17;;;19.98;;
46322;SDS011;32044;52.386;13.278;2022-12-08T06:48:25;44.47;;;19.40;;
46322;SDS011;32044;52.386;13.278;2022-12-08T06:50:51;44.53;;;20.55;;
46322;SDS011;32044;52.386;13.278;2022-12-08T06:53:16;39.35;;;19.55;;
46322;SDS011;32044;52.386;13.278;2022-12-08T06:55:42;47.42;;;22.10;;
46322;SDS011;32044;52.386;13.278;2022-12-08T06:58:09;45.22;;;21.42;;
46322;SDS011;32044;52.386;13.278;2022-12-08T07:00:35;55.28;;;22.25;;
46322;SDS011;32044;52.386;13.278;2022-12-08T07:03:00;50.65;;;22.48;;
46322;SDS011;32044;52.386;13.278;2022-12-08T07:05:25;48.63;;;20.55;;
46322;SDS011;32044;52.386;13.278;2022-12-08T07:07:50;52.95;;;23.05;;
46322;SDS011;32044;52.386;13.278;2022-12-08T07:10:16;47.72;;;21.13;;
46322;SDS011;32044;52.386;13.278;2022-12-08T07:12:41;50.42;;;21.23;;
46322;SDS011;32044;52.386;13.278;2022-12-08T07:15:07;50.08;;;22.05;;
46322;SDS011;32044;52.386;13.278;2022-12-08T07:17:32;56.03;;;22.60;;
46322;SDS011;32044;52.386;13.278;2022-12-08T07:19:57;43.03;;;21.80;;
46322;SDS011;32044;52.386;13.278;2022-12-08T07:22:23;46.20;;;21.60;;
46322;SDS011;32044;52.386;13.278;2022-12-08T07:24:48;45.75;;;21.50;;
46322;SDS011;32044;52.386;13.278;2022-12-08T07:27:13;50.05;;;22.42;;
46322;SDS011;32044;52.386;13.278;2022-12-08T07:29:38;44.03;;;20.67;;
46322;SDS011;32044;52.386;13.278;2022-12-08T07:32:04;38.10;;;18.95;;
46322;SDS011;32044;52.386;13.278;2022-12-08T07:34:31;38.78;;;18.08;;
46322;SDS011;32044;52.386;13.278;2022-12-08T07:36:57;39.92;;;19.30;;
46322;SDS011;32044;52.386;13.278;2022-12-08T07:39:22;43.28;;;21.45;;
46322;SDS011;32044;52.386;13.278;2022-12-08T07:41:47;43.38;;;20.50;;
46322;SDS011;32044;52.386;13.278;2022-12-08T07:44:12;43.00;;;19.83;;
46322;SDS011;32044;52.386;13.278;2022-12-08T07:46:38;41.15;;;19.75;;
46322;SDS011;32044;52.386;13.278;2022-12-08T07:49:03;42.05;;;19.83;;
46322;SDS011;32044;52.386;13.278;2022-12-08T07:51:28;36.33;;;20.15;;
46322;SDS011;32044;52.386;13.278;2022-12-08T07:53:54;38.13;;;20.67;;
46322;SDS011;32044;52.386;13.278;2022-12-08T07:56:19;43.38;;;20.45;;
46322;SDS011;32044;52.386;13.278;2022-12-08T07:58:44;39.67;;;20.85;;
46322;SDS011;32044;52.386;13.278;2022-12-08T08:01:27;37.45;;;22.52;;
46322;SDS011;32044;52.386;13.278;2022-12-08T08:03:54;49.70;;;22.45;;
46322;SDS011;32044;52.386;13.278;2022-12-08T08:06:20;39.72;;;21.05;;
46322;SDS011;32044;52.386;13.278;2022-12-08T08:08:45;40.08;;;20.83;;
46322;SDS011;32044;52.386;13.278;2022-12-08T08:11:10;50.55;;;21.50;;
46322;SDS011;32044;52.386;13.278;2022-12-08T08:13:36;38.70;;;20.60;;
46322;SDS011;32044;52.386;13.278;2022-12-08T08:16:02;34.53;;;18.40;;
46322;SDS011;32044;52.386;13.278;2022-12-08T08:18:28;41.35;;;18.60;;
46322;SDS011;32044;52.386;13.278;2022-12-08T08:20:54;45.25;;;19.92;;
46322;SDS011;32044;52.386;13.278;2022-12-08T08:23:19;37.45;;;21.00;;
46322;SDS011;32044;52.386;13.278;2022-12-08T08:25:44;35.53;;;19.30;;
46322;SDS011;32044;52.386;13.278;2022-12-08T08:28:09;36.95;;;19.73;;
46322;SDS011;32044;52.386;13.278;2022-12-08T08:30:35;46.85;;;24.15;;
46322;SDS011;32044;52.386;13.278;2022-12-08T08:33:00;41.85;;;20.60;;
46322;SDS011;32044;52.386;13.278;2022-12-08T08:35:25;39.83;;;19.45;;
46322;SDS011;32044;52.386;13.278;2022-12-08T08:37:51;39.38;;;21.45;;
46322;SDS011;32044;52.386;13.278;2022-12-08T08:40:16;36.40;;;18.70;;
46322;SDS011;32044;52.386;13.278;2022-12-08T08:42:42;33.28;;;18.27;;
46322;SDS011;32044;52.386;13.278;2022-12-08T08:45:07;35.58;;;19.67;;
46322;SDS011;32044;52.386;13.278;2022-12-08T08:47:32;32.22;;;19.00;;
46322;SDS011;32044;52.386;13.278;2022-12-08T08:49:58;33.42;;;19.52;;
46322;SDS011;32044;52.386;13.278;2022-12-08T08:52:23;40.92;;;19.20;;
46322;SDS011;32044;52.386;13.278;2022-12-08T08:54:48;36.80;;;19.10;;
46322;SDS011;32044;52.386;13.278;2022-12-08T08:57:14;34.17;;;19.35;;
46322;SDS011;32044;52.386;13.278;2022-12-08T08:59:39;32.58;;;18.00;;
46322;SDS011;32044;52.386;13.278;2022-12-08T09:02:04;32.65;;;19.50;;
46322;SDS011;32044;52.386;13.278;2022-12-08T09:04:29;35.75;;;19.45;;
46322;SDS011;32044;52.386;13.278;2022-12-08T09:06:55;35.03;;;20.05;;
46322;SDS011;32044;52.386;13.278;2022-12-08T09:09:20;30.42;;;18.60;;
46322;SDS011;32044;52.386;13.278;2022-12-08T09:11:45;45.00;;;19.55;;
46322;SDS011;32044;52.386;13.278;2022-12-08T09:14:11;32.80;;;19.75;;
46322;SDS011;32044;52.386;13.278;2022-12-08T09:16:38;34.28;;;19.15;;
46322;SDS011;32044;52.386;13.278;2022-12-08T09:19:04;34.63;;;19.25;;
46322;SDS011;32044;52.386;13.278;2022-12-08T09:21:29;33.83;;;17.90;;
46322;SDS011;32044;52.386;13.278;2022-12-08T09:23:55;34.72;;;16.95;;
46322;SDS011;32044;52.386;13.278;2022-12-08T09:26:21;34.53;;;18.85;;
46322;SDS011;32044;52.386;13.278;2022-12-08T09:28:48;33.17;;;18.30;;
46322;SDS011;32044;52.386;13.278;2022-12-08T09:31:14;30.77;;;17.40;;
46322;SDS011;32044;52.386;13.278;2022-12-08T09:33:41;30.08;;;17.17;;
46322;SDS011;32044;52.386;13.278;2022-12-08T09:36:07;35.33;;;18.33;;
46322;SDS011;32044;52.386;13.278;2022-12-08T09:38:32;32.03;;;18.73;;
46322;SDS011;32044;52.386;13.278;2022-12-08T09:40:58;37.58;;;18.35;;
46322;SDS011;32044;52.386;13.278;2022-12-08T09:46:12;32.53;;;17.42;;
46322;SDS011;32044;52.386;13.278;2022-12-08T09:48:42;30.52;;;17.95;;
46322;SDS011;32044;52.386;13.278;2022-12-08T09:51:10;29.48;;;18.65;;
46322;SDS011;32044;52.386;13.278;2022-12-08T09:53:47;37.67;;;19.45;;
46322;SDS011;32044;52.386;13.278;2022-12-08T09:56:15;29.50;;;16.90;;
46322;SDS011;32044;52.386;13.278;2022-12-08T09:58:50;28.55;;;16.55;;
46322;SDS011;32044;52.386;13.278;2022-12-08T10:01:34;30.58;;;17.77;;
46322;SDS011;32044;52.386;13.278;2022-12-08T10:04:28;30.35;;;16.65;;
46322;SDS011;32044;52.386;13.278;2022-12-08T10:06:58;24.42;;;15.85;;
46322;SDS011;32044;52.386;13.278;2022-12-08T10:09:41;28.92;;;17.35;;
46322;SDS011;32044;52.386;13.278;2022-12-08T10:12:12;28.45;;;16.85;;
46322;SDS011;32044;52.386;13.278;2022-12-08T10:17:54;25.42;;;15.63;;
46322;SDS011;32044;52.386;13.278;2022-12-08T10:20:22;28.73;;;17.15;;
46322;SDS011;32044;52.386;13.278;2022-12-08T10:22:49;25.42;;;16.13;;
46322;SDS011;32044;52.386;13.278;2022-12-08T10:25:23;26.13;;;17.15;;
46322;SDS011;32044;52.386;13.278;2022-12-08T10:27:54;28.77;;;16.75;;
46322;SDS011;32044;52.386;13.278;2022-12-08T10:30:20;30.98;;;16.90;;
46322;SDS011;32044;52.386;13.278;2022-12-08T10:32:50;28.58;;;17.45;;
46322;SDS011;32044;52.386;13.278;2022-12-08T10:35:16;29.88;;;16.45;;
46322;SDS011;32044;52.386;13.278;2022-12-08T10:38:00;26.27;;;15.70;;
46322;SDS011;32044;52.386;13.278;2022-12-08T10:40:27;25.38;;;16.15;;
46322;SDS011;32044;52.386;13.278;2022-12-08T10:42:55;31.48;;;17.00;;
46322;SDS011;32044;52.386;13.278;2022-12-08T10:45:24;25.00;;;15.32;;
46322;SDS011;32044;52.386;13.278;2022-12-08T10:48:00;27.33;;;16.42;;
46322;SDS011;32044;52.386;13.278;2022-12-08T10:51:12;26.38;;;16.52;;
46322;SDS011;32044;52.386;13.278;2022-12-08T10:53:23;28.33;;;15.05;;
46322;SDS011;32044;52.386;13.278;2022-12-08T10:58:29;25.65;;;15.20;;
46322;SDS011;32044;52.386;13.278;2022-12-08T11:03:49;26.95;;;15.02;;
46322;SDS011;32044;52.386;13.278;2022-12-08T11:06:17;21.92;;;14.45;;
46322;SDS011;32044;52.386;13.278;2022-12-08T11:08:48;24.50;;;13.95;;
46322;SDS011;32044;52.386;13.278;2022-12-08T11:11:15;26.20;;;14.85;;
46322;SDS011;32044;52.386;13.278;2022-12-08T11:13:41;27.25;;;14.93;;
46322;SDS011;32044;52.386;13.278;2022-12-08T11:16:07;26.15;;;15.15;;
46322;SDS011;32044;52.386;13.278;2022-12-08T11:18:43;23.33;;;14.50;;
46322;SDS011;32044;52.386;13.278;2022-12-08T11:21:15;23.77;;;14.23;;
46322;SDS011;32044;52.386;13.278;2022-12-08T11:23:45;25.33;;;14.80;;
46322;SDS011;32044;52.386;13.278;2022-12-08T11:26:15;23.35;;;13.88;;
46322;SDS011;32044;52.386;13.278;2022-12-08T11:28:42;25.63;;;14.63;;
46322;SDS011;32044;52.386;13.278;2022-12-08T11:31:28;20.45;;;14.13;;
46322;SDS011;32044;52.386;13.278;2022-12-08T11:33:56;23.25;;;13.55;;
46322;SDS011;32044;52.386;13.278;2022-12-08T11:36:22;21.88;;;13.50;;
46322;SDS011;32044;52.386;13.278;2022-12-08T11:38:50;22.95;;;14.25;;
46322;SDS011;32044;52.386;13.278;2022-12-08T11:41:21;22.40;;;13.30;;
46322;SDS011;32044;52.386;13.278;2022-12-08T11:44:01;21.33;;;12.85;;
46322;SDS011;32044;52.386;13.278;2022-12-08T11:46:51;20.65;;;13.45;;
46322;SDS011;32044;52.386;13.278;2022-12-08T11:49:20;18.17;;;11.13;;
46322;SDS011;32044;52.386;13.278;2022-12-08T11:54:49;21.73;;;12.10;;
46322;SDS011;32044;52.386;13.278;2022-12-08T11:59:47;22.30;;;11.38;;
46322;SDS011;32044;52.386;13.278;2022-12-08T12:02:24;17.83;;;11.32;;
46322;SDS011;32044;52.386;13.278;2022-12-08T12:18:28;18.00;;;9.33;;
46322;SDS011;32044;52.386;13.278;2022-12-08T12:20:58;22.58;;;13.68;;
46322;SDS011;32044;52.386;13.278;2022-12-08T12:23:41;26.75;;;14.60;;
46322;SDS011;32044;52.386;13.278;2022-12-08T12:26:27;22.98;;;13.98;;
46322;SDS011;32044;52.386;13.278;2022-12-08T12:29:04;21.73;;;13.32;;
46322;SDS011;32044;52.386;13.278;2022-12-08T12:31:32;24.85;;;14.70;;
46322;SDS011;32044;52.386;13.278;2022-12-08T12:36:43;25.63;;;13.95;;
46322;SDS011;32044;52.386;13.278;2022-12-08T12:39:10;22.98;;;14.20;;
46322;SDS011;32044;52.386;13.278;2022-12-08T12:52:49;29.80;;;15.63;;
46322;SDS011;32044;52.386;13.278;2022-12-08T12:57:21;22.83;;;15.70;;
46322;SDS011;32044;52.386;13.278;2022-12-08T13:02:22;28.45;;;15.50;;
46322;SDS011;32044;52.386;13.278;2022-12-08T13:05:08;28.83;;;16.08;;
46322;SDS011;32044;52.386;13.278;2022-12-08T13:07:41;29.52;;;16.65;;
46322;SDS011;32044;52.386;13.278;2022-12-08T13:10:15;32.17;;;18.20;;
46322;SDS011;32044;52.386;13.278;2022-12-08T13:12:43;28.63;;;16.45;;
46322;SDS011;32044;52.386;13.278;2022-12-08T13:15:18;29.45;;;16.75;;
46322;SDS011;32044;52.386;13.278;2022-12-08T13:17:44;26.70;;;16.58;;
46322;SDS011;32044;52.386;13.278;2022-12-08T13:20:17;28.65;;;16.48;;
46322;SDS011;32044;52.386;13.278;2022-12-08T13:30:46;30.02;;;17.48;;
46322;SDS011;32044;52.386;13.278;2022-12-08T13:33:32;26.27;;;15.90;;
46322;SDS011;32044;52.386;13.278;2022-12-08T13:36:04;27.90;;;15.63;;
46322;SDS011;32044;52.386;13.278;2022-12-08T13:38:34;29.45;;;16.25;;
46322;SDS011;32044;52.386;13.278;2022-12-08T13:41:02;30.42;;;16.73;;
46322;SDS011;32044;52.386;13.278;2022-12-08T13:43:43;29.13;;;17.38;;
46322;SDS011;32044;52.386;13.278;2022-12-08T13:46:12;31.70;;;17.65;;
46322;SDS011;32044;52.386;13.278;2022-12-08T13:48:41;32.63;;;18.30;;
46322;SDS011;32044;52.386;13.278;2022-12-08T13:53:40;27.73;;;16.70;;
46322;SDS011;32044;52.386;13.278;2022-12-08T13:56:07;28.85;;;17.25;;
46322;SDS011;32044;52.386;13.278;2022-12-08T13:58:35;30.02;;;16.70;;
46322;SDS011;32044;52.386;13.278;2022-12-08T14:01:06;29.00;;;17.08;;
46322;SDS011;32044;52.386;13.278;2022-12-08T14:03:51;29.08;;;17.80;;
46322;SDS011;32044;52.386;13.278;2022-12-08T14:06:24;30.83;;;16.90;;
46322;SDS011;32044;52.386;13.278;2022-12-08T14:08:53;28.00;;;17.27;;
46322;SDS011;32044;52.386;13.278;2022-12-08T14:11:28;33.10;;;16.98;;
46322;SDS011;32044;52.386;13.278;2022-12-08T14:14:07;29.88;;;17.20;;
46322;SDS011;32044;52.386;13.278;2022-12-08T14:16:53;28.10;;;16.98;;
46322;SDS011;32044;52.386;13.278;2022-12-08T14:19:24;27.05;;;16.75;;
46322;SDS011;32044;52.386;13.278;2022-12-08T14:21:57;33.70;;;16.40;;
46322;SDS011;32044;52.386;13.278;2022-12-08T14:24:25;28.60;;;17.15;;
46322;SDS011;32044;52.386;13.278;2022-12-08T14:26:53;29.42;;;17.42;;
46322;SDS011;32044;52.386;13.278;2022-12-08T14:29:30;20.98;;;12.00;;
46322;SDS011;32044;52.386;13.278;2022-12-08T14:32:02;9.02;;;4.13;;
46322;SDS011;32044;52.386;13.278;2022-12-08T14:34:28;8.45;;;4.53;;
46322;SDS011;32044;52.386;13.278;2022-12-08T14:36:53;7.95;;;4.97;;
46322;SDS011;32044;52.386;13.278;2022-12-08T14:39:19;9.13;;;5.53;;
46322;SDS011;32044;52.386;13.278;2022-12-08T14:41:58;9.93;;;5.30;;
46322;SDS011;32044;52.386;13.278;2022-12-08T14:44:24;11.18;;;5.38;;
46322;SDS011;32044;52.386;13.278;2022-12-08T14:47:05;7.95;;;5.55;;
46322;SDS011;32044;52.386;13.278;2022-12-08T14:49:33;12.15;;;4.97;;
46322;SDS011;32044;52.386;13.278;2022-12-08T14:51:59;11.13;;;5.47;;
46322;SDS011;32044;52.386;13.278;2022-12-08T14:54:25;11.43;;;5.45;;
46322;SDS011;32044;52.386;13.278;2022-12-08T14:56:53;13.25;;;6.00;;
46322;SDS011;32044;52.386;13.278;2022-12-08T14:59:26;10.82;;;5.05;;
46322;SDS011;32044;52.386;13.278;2022-12-08T15:02:08;11.68;;;5.88;;
46322;SDS011;32044;52.386;13.278;2022-12-08T15:04:36;16.30;;;6.93;;
46322;SDS011;32044;52.386;13.278;2022-12-08T15:07:06;12.48;;;5.63;;
46322;SDS011;32044;52.386;13.278;2022-12-08T15:09:37;18.35;;;8.15;;
46322;SDS011;32044;52.386;13.278;2022-12-08T15:14:42;18.17;;;8.55;;
46322;SDS011;32044;52.386;13.278;2022-12-08T15:19:57;15.57;;;7.78;;
46322;SDS011;32044;52.386;13.278;2022-12-08T15:22:23;16.17;;;8.57;;
46322;SDS011;32044;52.386;13.278;2022-12-08T15:24:50;13.85;;;9.07;;
46322;SDS011;32044;52.386;13.278;2022-12-08T15:27:16;13.90;;;8.98;;
46322;SDS011;32044;52.386;13.278;2022-12-08T15:29:42;16.90;;;8.10;;
46322;SDS011;32044;52.386;13.278;2022-12-08T15:32:08;16.10;;;8.52;;
46322;SDS011;32044;52.386;13.278;2022-12-08T15:34:34;12.57;;;8.20;;
46322;SDS011;32044;52.386;13.278;2022-12-08T15:37:01;14.27;;;10.32;;
46322;SDS011;32044;52.386;13.278;2022-12-08T15:39:31;17.05;;;10.07;;
46322;SDS011;32044;52.386;13.278;2022-12-08T15:41:59;15.45;;;10.10;;
46322;SDS011;32044;52.386;13.278;2022-12-08T15:44:25;16.15;;;8.98;;
46322;SDS011;32044;52.386;13.278;2022-12-08T15:46:50;12.73;;;9.07;;
46322;SDS011;32044;52.386;13.278;2022-12-08T15:49:17;15.93;;;9.38;;
46322;SDS011;32044;52.386;13.278;2022-12-08T15:51:44;13.18;;;9.65;;
46322;SDS011;32044;52.386;13.278;2022-12-08T15:54:09;17.73;;;10.80;;